createdAt,value
2019-04-03T15:03:06.861Z,99683.14
2019-04-03T15:04:11.962Z,99686.59
2019-04-03T15:05:19.652Z,99679.83
2019-04-03T15:06:23.987Z,99673.69
2019-04-03T15:07:29.719Z,99674.34
2019-04-03T15:08:34.634Z,99674.75
2019-04-03T15:09:41.117Z,99675.47
2019-04-03T15:10:46.446Z,99666.20
2019-04-03T15:11:51.404Z,99668.34
2019-04-03T15:12:56.789Z,99670.41
2019-04-03T15:14:02.389Z,99665.33
2019-04-03T15:15:08.026Z,99667.67
2019-04-03T15:16:13.580Z,99656.05
2019-04-03T15:17:18.296Z,99646.62
2019-04-03T15:18:24.227Z,99654.23
2019-04-03T15:19:31.025Z,99653.38
2019-04-03T15:20:35.932Z,99662.62
2019-04-03T15:21:41.506Z,99676.27
2019-04-03T15:22:46.515Z,99672.09
2019-04-03T15:23:52.084Z,99673.63
2019-04-03T15:24:57.333Z,99672.75
2019-04-03T15:26:02.208Z,99671.75
2019-04-03T15:27:09.932Z,99678.06
2019-04-03T15:28:15.492Z,99674.91
2019-04-03T15:29:20.376Z,99678.84
2019-04-03T15:30:25.947Z,99680.07
2019-04-03T15:31:31.125Z,99679.03
2019-04-03T15:32:36.415Z,99682.19
2019-04-03T15:33:41.264Z,99684.19
2019-04-03T15:34:46.279Z,99682.92
2019-04-03T15:35:50.992Z,99681.19
2019-04-03T15:36:55.507Z,99676.77
2019-04-03T15:38:00.429Z,99676.48
2019-04-03T15:39:11.621Z,99679.38
2019-04-03T15:40:16.289Z,99671.67
2019-04-03T15:41:21.838Z,99674.97
2019-04-03T15:42:26.506Z,99674.36
2019-04-03T15:43:31.506Z,99672.67
2019-04-03T15:44:36.350Z,99683.66
2019-04-03T15:45:46.944Z,99676.72
2019-04-03T15:46:51.782Z,99671.73
2019-04-03T15:47:58.254Z,99671.84
2019-04-03T15:49:03.509Z,99678.69
2019-04-03T15:50:10.132Z,99669.90
2019-04-03T15:51:15.165Z,99674.30
2019-04-03T15:52:20.259Z,99672.97
2019-04-03T15:53:25.868Z,99675.84
2019-04-03T15:54:32.510Z,99671.34
2019-04-03T15:55:39.345Z,99665.25
2019-04-03T15:56:45.798Z,99662.95
2019-04-03T15:57:52.601Z,99661.85
2019-04-03T15:58:59.282Z,99666.91
2019-04-03T16:00:04.486Z,99658.77
2019-04-03T16:01:09.307Z,99650.80
2019-04-03T16:02:13.966Z,99656.16
2019-04-03T16:03:19.644Z,99656.63
2019-04-03T16:04:24.914Z,99653.11
2019-04-03T16:05:33.898Z,99650.97
2019-04-03T16:06:38.334Z,99650.83
2019-04-03T16:07:43.266Z,99647.96
2019-04-03T16:08:48.532Z,99645.94
2019-04-03T16:09:53.570Z,99649.94
2019-04-03T16:10:58.940Z,99651.91
2019-04-03T16:12:06.128Z,99649.11
2019-04-03T16:13:12.082Z,99651.45
2019-04-03T16:14:19.886Z,99655.76
2019-04-03T16:15:24.639Z,99647.45
2019-04-03T16:16:45.892Z,99658.41
2019-04-03T16:17:50.821Z,99652.38
2019-04-03T16:18:55.930Z,99659.08
2019-04-03T16:20:00.834Z,99652.88
2019-04-03T16:21:05.276Z,99650.20
2019-04-03T16:22:11.541Z,99648.80
2019-04-03T16:23:17.279Z,99653.40
2019-04-03T16:24:22.513Z,99645.86
2019-04-03T16:25:27.171Z,99647.66
2019-04-03T16:26:31.840Z,99649.77
2019-04-03T16:27:36.396Z,99641.18
2019-04-03T16:28:40.864Z,99643.77
2019-04-03T16:29:45.903Z,99642.53
2019-04-03T16:30:52.743Z,99645.54
2019-04-03T16:31:57.652Z,99647.16
2019-04-03T16:33:04.795Z,99643.89
2019-04-03T16:34:12.252Z,99643.36
2019-04-03T16:35:15.382Z,99643.97
2019-04-03T16:36:20.850Z,99639.84
2019-04-03T16:37:26.457Z,99643.18
2019-04-03T16:38:45.948Z,99635.83
2019-04-03T16:39:50.748Z,99633.64
2019-04-03T16:40:55.944Z,99634.06
2019-04-03T16:42:01.221Z,99620.33
2019-04-03T16:43:05.825Z,99615.34
2019-04-03T16:44:10.838Z,99616.69
2019-04-03T16:45:16.179Z,99615.09
2019-04-03T16:46:21.121Z,99607.22
2019-04-03T16:47:27.627Z,99610.06
2019-04-03T16:48:32.523Z,99611.15
2019-04-03T16:49:38.007Z,99614.92
2019-04-03T16:50:42.819Z,99616.58
2019-04-03T16:51:49.345Z,99611.52
2019-04-03T16:52:54.562Z,99610.18
2019-04-03T16:54:00.745Z,99610.08
2019-04-03T16:55:05.487Z,99610.67
2019-04-03T16:56:10.684Z,99619.59
2019-04-03T16:57:15.915Z,99623.13
2019-04-03T16:58:21.071Z,99627.91
2019-04-03T16:59:26.035Z,99632.66
2019-04-03T17:00:30.763Z,99639.97
2019-04-03T17:01:35.417Z,99646.49
2019-04-03T17:02:40.749Z,99646.81
2019-04-03T17:03:45.784Z,99649.75
2019-04-03T17:04:50.516Z,99651.58
2019-04-03T17:05:55.746Z,99653.25
2019-04-03T17:07:00.945Z,99644.66
2019-04-03T17:08:06.487Z,99650.22
2019-04-03T17:09:11.414Z,99654.81
2019-04-03T17:10:16.083Z,99642.18
2019-04-03T17:11:21.598Z,99649.92
2019-04-03T17:12:26.322Z,99648.59
2019-04-03T17:13:31.736Z,99641.83
2019-04-03T17:14:36.481Z,99645.21
2019-04-03T17:15:42.052Z,99650.09
2019-04-03T17:16:47.097Z,99644.45
2019-04-03T17:17:52.435Z,99643.89
2019-04-03T17:18:57.355Z,99640.42
2019-04-03T17:20:04.594Z,99638.95
2019-04-03T17:21:08.907Z,99637.41
2019-04-03T17:22:14.224Z,99636.09
2019-04-03T17:23:19.234Z,99642.75
2019-04-03T17:24:24.637Z,99638.27
2019-04-03T17:25:38.257Z,99631.69
2019-04-03T17:26:47.965Z,99627.86
2019-04-03T17:27:54.183Z,99628.50
2019-04-03T17:29:01.725Z,99634.63
2019-04-03T17:29:57.197Z,99632.12
2019-04-03T17:31:02.228Z,99638.11
2019-04-03T17:32:08.684Z,99644.56
2019-04-03T17:33:13.267Z,99645.24
2019-04-03T17:34:18.447Z,99652.95
2019-04-03T17:35:22.868Z,99643.27
2019-04-03T17:36:28.094Z,99647.60
2019-04-03T17:37:33.502Z,99651.25
2019-04-03T17:38:38.712Z,99644.69
2019-04-03T17:39:45.146Z,99645.20
2019-04-03T17:40:49.831Z,99645.87
2019-04-03T17:41:54.738Z,99657.41
2019-04-03T17:42:59.574Z,99646.95
2019-04-03T17:44:04.619Z,99637.89
2019-04-03T17:45:09.902Z,99636.17
2019-04-03T17:46:15.824Z,99631.92
2019-04-03T17:47:21.521Z,99638.13
2019-04-03T17:48:26.759Z,99633.80
2019-04-03T17:49:31.706Z,99643.19
2019-04-03T17:50:37.042Z,99650.19
2019-04-03T17:51:42.239Z,99648.95
2019-04-03T17:52:47.859Z,99645.36
2019-04-03T17:53:52.883Z,99650.95
2019-04-03T17:54:58.101Z,99655.22
2019-04-03T17:56:02.869Z,99660.94
2019-04-03T17:57:08.147Z,99667.04
2019-04-03T17:58:16.407Z,99673.08
2019-04-03T17:59:20.281Z,99674.77
2019-04-03T18:00:25.919Z,99674.58
2019-04-03T18:01:30.964Z,99678.46
2019-04-03T18:02:35.942Z,99685.55
2019-04-03T18:03:40.413Z,99683.00
2019-04-03T18:04:45.807Z,99691.03
2019-04-03T18:05:50.498Z,99694.33
2019-04-03T18:06:57.256Z,99678.00
2019-04-03T18:08:02.177Z,99673.70
2019-04-03T18:09:09.467Z,99679.58
2019-04-03T18:10:14.623Z,99680.69
2019-04-03T18:11:19.636Z,99690.32
2019-04-03T18:12:24.573Z,99690.53
2019-04-03T18:13:29.784Z,99682.77
2019-04-03T18:14:35.010Z,99685.00
2019-04-03T18:15:39.728Z,99688.14
2019-04-03T18:16:44.395Z,99676.34
2019-04-03T18:17:49.466Z,99675.44
2019-04-03T18:18:54.328Z,99672.23
2019-04-03T18:19:58.729Z,99666.95
2019-04-03T18:21:03.946Z,99666.62
2019-04-03T18:22:08.864Z,99672.85
2019-04-03T18:23:14.472Z,99673.67
2019-04-03T18:24:19.299Z,99676.11
2019-04-03T18:25:24.203Z,99677.06
2019-04-03T18:26:30.636Z,99681.31
2019-04-03T18:27:36.099Z,99678.00
2019-04-03T18:28:40.603Z,99682.39
2019-04-03T18:29:45.791Z,99684.92
2019-04-03T18:30:50.745Z,99678.63
2019-04-03T18:31:55.951Z,99686.07
2019-04-03T18:33:01.150Z,99692.00
2019-04-03T18:34:06.376Z,99693.27
2019-04-03T18:35:11.242Z,99696.72
2019-04-03T18:36:15.634Z,99696.88
2019-04-03T18:37:20.242Z,99691.31
2019-04-03T18:38:25.134Z,99696.95
2019-04-03T18:39:30.337Z,99687.02
2019-04-03T18:40:35.297Z,99678.23
2019-04-03T18:41:40.483Z,99678.58
2019-04-03T18:42:45.445Z,99678.08
2019-04-03T18:43:50.618Z,99684.18
2019-04-03T18:44:58.267Z,99690.55
2019-04-03T18:46:03.217Z,99693.02
2019-04-03T18:47:07.626Z,99697.57
2019-04-03T18:48:12.282Z,99700.30
2019-04-03T18:49:17.227Z,99703.97
2019-04-03T18:50:21.941Z,99704.16
2019-04-03T18:51:26.802Z,99703.69
2019-04-03T18:52:31.748Z,99701.98
2019-04-03T18:53:36.598Z,99712.70
2019-04-03T18:54:42.496Z,99714.63
2019-04-03T18:55:47.932Z,99717.90
2019-04-03T18:56:52.637Z,99713.95
2019-04-03T18:57:57.259Z,99717.16
2019-04-03T18:59:01.906Z,99715.76
2019-04-03T19:00:07.030Z,99722.52
2019-04-03T19:01:11.431Z,99713.31
2019-04-03T19:02:16.662Z,99711.70
2019-04-03T19:03:21.855Z,99715.73
2019-04-03T19:04:26.501Z,99719.13
2019-04-03T19:05:31.757Z,99720.03
2019-04-03T19:06:36.798Z,99717.97
2019-04-03T19:07:41.480Z,99723.84
2019-04-03T19:08:49.808Z,99724.06
2019-04-03T19:10:06.034Z,99724.92
2019-04-03T19:11:02.743Z,99718.69
2019-04-03T19:12:08.718Z,99721.66
2019-04-03T19:13:14.658Z,99722.38
2019-04-03T19:14:27.122Z,99733.05
2019-04-03T19:15:26.158Z,99731.92
2019-04-03T19:16:43.655Z,99733.46
2019-04-03T19:17:37.833Z,99728.20
2019-04-03T19:18:43.068Z,99728.08
2019-04-03T19:19:47.998Z,99724.93
2019-04-03T19:20:52.689Z,99727.75
2019-04-03T19:21:57.717Z,99723.95
2019-04-03T19:23:04.951Z,99725.40
2019-04-03T19:24:09.353Z,99723.06
2019-04-03T19:25:14.549Z,99730.59
2019-04-03T19:26:19.404Z,99730.09
2019-04-03T19:27:24.343Z,99729.38
2019-04-03T19:28:29.033Z,99724.09
2019-04-03T19:29:35.493Z,99730.56
2019-04-03T19:30:40.315Z,99726.70
2019-04-03T19:31:45.496Z,99717.80
2019-04-03T19:32:50.096Z,99717.73
2019-04-03T19:33:55.117Z,99723.01
2019-04-03T19:34:59.935Z,99718.81
2019-04-03T19:36:04.931Z,99718.03
2019-04-03T19:37:09.524Z,99712.64
2019-04-03T19:38:14.488Z,99710.16
2019-04-03T19:39:19.562Z,99715.78
2019-04-03T19:40:24.221Z,99717.75
2019-04-03T19:41:29.265Z,99714.02
2019-04-03T19:42:33.975Z,99721.78
2019-04-03T19:43:38.493Z,99718.73
2019-04-03T19:44:43.133Z,99725.03
2019-04-03T19:45:47.852Z,99725.09
2019-04-03T19:46:53.920Z,99726.07
2019-04-03T19:47:58.810Z,99728.39
2019-04-03T19:49:03.759Z,99733.58
2019-04-03T19:50:09.464Z,99740.58
2019-04-03T19:51:14.783Z,99743.86
2019-04-03T19:52:19.806Z,99742.64
2019-04-03T19:53:25.024Z,99735.44
2019-04-03T19:54:30.254Z,99739.89
2019-04-03T19:55:35.403Z,99738.24
2019-04-03T19:56:40.262Z,99744.08
2019-04-03T19:57:45.312Z,99742.98
2019-04-03T19:58:50.819Z,99742.91
2019-04-03T19:59:55.543Z,99739.37
2019-04-03T20:01:03.454Z,99745.77
2019-04-03T20:02:09.629Z,99752.93
2019-04-03T20:03:14.776Z,99743.89
2019-04-03T20:04:20.057Z,99747.28
2019-04-03T20:05:24.700Z,99740.92
2019-04-03T20:06:29.655Z,99737.73
2019-04-03T20:07:34.303Z,99738.78
2019-04-03T20:08:39.247Z,99742.13
2019-04-03T20:09:44.392Z,99736.59
2019-04-03T20:10:49.325Z,99738.11
2019-04-03T20:11:54.221Z,99733.13
2019-04-03T20:12:58.843Z,99725.52
2019-04-03T20:14:03.413Z,99726.23
2019-04-03T20:15:10.050Z,99725.85
2019-04-03T20:16:14.703Z,99721.64
2019-04-03T20:17:19.351Z,99718.55
2019-04-03T20:18:25.982Z,99720.13
2019-04-03T20:19:31.232Z,99719.51
2019-04-03T20:20:36.708Z,99714.08
2019-04-03T20:21:41.636Z,99714.41
2019-04-03T20:22:46.242Z,99710.13
2019-04-03T20:23:50.607Z,99700.80
2019-04-03T20:25:00.271Z,99708.31
2019-04-03T20:26:04.530Z,99700.01
2019-04-03T20:27:08.448Z,99702.39
2019-04-03T20:28:13.393Z,99696.17
2019-04-03T20:29:18.711Z,99699.44
2019-04-03T20:30:23.372Z,99699.45
2019-04-03T20:31:28.036Z,99696.89
2019-04-03T20:32:33.015Z,99697.88
2019-04-03T20:33:38.503Z,99701.20
2019-04-03T20:34:45.105Z,99699.42
2019-04-03T20:35:50.343Z,99698.87
2019-04-03T20:36:55.097Z,99700.84
2019-04-03T20:38:00.016Z,99701.33
2019-04-03T20:39:06.719Z,99701.17
2019-04-03T20:40:11.234Z,99702.34
2019-04-03T20:41:15.870Z,99706.80
2019-04-03T20:42:21.032Z,99707.36
2019-04-03T20:43:25.861Z,99709.38
2019-04-03T20:44:31.288Z,99720.30
2019-04-03T20:45:36.518Z,99728.61
2019-04-03T20:46:41.731Z,99725.94
2019-04-03T20:47:46.593Z,99721.01
2019-04-03T20:48:51.799Z,99722.55
2019-04-03T20:49:56.466Z,99720.81
2019-04-03T20:51:01.122Z,99719.88
2019-04-03T20:52:05.927Z,99729.84
2019-04-03T20:53:10.506Z,99728.65
2019-04-03T20:54:15.470Z,99729.61
2019-04-03T20:55:20.161Z,99735.73
2019-04-03T20:56:28.753Z,99733.62
2019-04-03T20:57:33.309Z,99733.66
2019-04-03T20:58:40.685Z,99723.77
2019-04-03T20:59:58.530Z,99721.64
2019-04-03T21:01:05.798Z,99719.93
2019-04-03T21:01:59.080Z,99712.02
2019-04-03T21:03:04.036Z,99709.73
2019-04-03T21:04:09.001Z,99705.02
2019-04-03T21:05:13.766Z,99698.27
2019-04-03T21:06:20.350Z,99690.38
2019-04-03T21:07:24.687Z,99690.73
2019-04-03T21:08:31.537Z,99683.36
2019-04-03T21:09:36.071Z,99685.89
2019-04-03T21:10:41.317Z,99683.77
2019-04-03T21:11:46.400Z,99673.29
2019-04-03T21:12:50.893Z,99668.98
2019-04-03T21:13:55.323Z,99667.08
2019-04-03T21:15:08.269Z,99668.19
2019-04-03T21:16:06.904Z,99669.55
2019-04-03T21:17:12.456Z,99664.09
2019-04-03T21:18:18.906Z,99668.63
2019-04-03T21:19:24.249Z,99670.80
2019-04-03T21:20:29.193Z,99661.84
2019-04-03T21:21:33.969Z,99667.53
2019-04-03T21:22:39.211Z,99663.23
2019-04-03T21:23:44.454Z,99666.47
2019-04-03T21:24:49.443Z,99664.22
2019-04-03T21:25:54.675Z,99663.65
2019-04-03T21:26:59.907Z,99668.25
2019-04-03T21:28:04.898Z,99668.20
2019-04-03T21:29:10.141Z,99668.36
2019-04-03T21:30:15.571Z,99662.45
2019-04-03T21:31:20.504Z,99667.44
2019-04-03T21:32:26.936Z,99662.11
2019-04-03T21:33:32.112Z,99666.73
2019-04-03T21:34:37.598Z,99670.66
2019-04-03T21:35:42.838Z,99667.70
2019-04-03T21:36:47.851Z,99665.67
2019-04-03T21:37:52.555Z,99666.13
2019-04-03T21:38:57.786Z,99667.94
2019-04-03T21:40:04.882Z,99673.36
2019-04-03T21:41:09.738Z,99680.37
2019-04-03T21:42:14.705Z,99674.30
2019-04-03T21:43:19.693Z,99680.22
2019-04-03T21:44:25.000Z,99675.22
2019-04-03T21:45:30.214Z,99668.05
2019-04-03T21:46:35.172Z,99664.31
2019-04-03T21:47:40.882Z,99661.58
2019-04-03T21:48:46.566Z,99670.34
2019-04-03T21:49:51.510Z,99674.50
2019-04-03T21:50:56.098Z,99672.83
2019-04-03T21:52:01.220Z,99671.78
2019-04-03T21:53:06.178Z,99677.84
2019-04-03T21:54:10.610Z,99679.13
2019-04-03T21:55:15.556Z,99686.33
2019-04-03T21:56:20.796Z,99690.69
2019-04-03T21:57:25.488Z,99688.70
2019-04-03T21:58:30.934Z,99677.95
2019-04-03T21:59:35.533Z,99668.45
2019-04-03T22:01:19.637Z,99659.91
2019-04-03T22:02:24.920Z,99662.80
2019-04-03T22:03:30.156Z,99663.02
2019-04-03T22:04:34.866Z,99672.66
2019-04-03T22:05:39.842Z,99671.90
2019-04-03T22:06:44.556Z,99675.88
2019-04-03T22:07:49.773Z,99675.78
2019-04-03T22:08:54.514Z,99674.37
2019-04-03T22:09:59.964Z,99680.81
2019-04-03T22:11:06.254Z,99678.23
2019-04-03T22:12:11.870Z,99688.58
2019-04-03T22:13:16.812Z,99687.86
2019-04-03T22:14:21.795Z,99691.61
2019-04-03T22:15:27.118Z,99692.71
2019-04-03T22:16:32.053Z,99700.59
2019-04-03T22:17:37.026Z,99704.77
2019-04-03T22:18:41.724Z,99708.84
2019-04-03T22:19:47.078Z,99710.17
2019-04-03T22:20:51.513Z,99715.96
2019-04-03T22:21:56.456Z,99714.25
2019-04-03T22:23:02.915Z,99715.16
2019-04-03T22:24:07.611Z,99709.45
2019-04-03T22:25:12.837Z,99710.46
2019-04-03T22:26:18.059Z,99705.33
2019-04-03T22:27:23.007Z,99700.85
2019-04-03T22:28:27.468Z,99691.67
2019-04-03T22:29:32.418Z,99697.03
2019-04-03T22:30:37.130Z,99690.86
2019-04-03T22:31:43.373Z,99687.02
2019-04-03T22:32:48.034Z,99680.65
2019-04-03T22:33:52.458Z,99678.25
2019-04-03T22:34:56.885Z,99674.13
2019-04-03T22:36:03.315Z,99669.92
2019-04-03T22:37:08.565Z,99661.38
2019-04-03T22:38:13.504Z,99667.00
2019-04-03T22:39:18.088Z,99668.17
2019-04-03T22:40:23.025Z,99669.58
2019-04-03T22:41:27.988Z,99678.52
2019-04-03T22:42:33.137Z,99684.05
2019-04-03T22:43:38.102Z,99683.49
2019-04-03T22:44:43.100Z,99685.42
2019-04-03T22:45:50.449Z,99688.63
2019-04-03T22:46:54.715Z,99684.80
2019-04-03T22:47:59.486Z,99693.97
2019-04-03T22:49:04.193Z,99696.06
2019-04-03T22:50:08.615Z,99703.59
2019-04-03T22:51:14.140Z,99714.55
2019-04-03T22:52:19.745Z,99712.80
2019-04-03T22:53:24.445Z,99710.33
2019-04-03T22:54:29.115Z,99715.42
2019-04-03T22:55:34.616Z,99703.80
2019-04-03T22:56:39.868Z,99702.45
2019-04-03T22:57:45.579Z,99708.79
2019-04-03T22:58:52.564Z,99706.58
2019-04-03T22:59:57.391Z,99711.94
2019-04-03T23:01:02.612Z,99710.27
2019-04-03T23:02:07.294Z,99703.93
2019-04-03T23:03:13.439Z,99708.88
2019-04-03T23:04:18.446Z,99706.64
2019-04-03T23:05:23.444Z,99706.14
2019-04-03T23:06:28.301Z,99691.41
2019-04-03T23:07:33.433Z,99695.74
2019-04-03T23:08:38.298Z,99687.27
2019-04-03T23:09:43.497Z,99687.13
2019-04-03T23:10:48.537Z,99686.88
2019-04-03T23:11:53.784Z,99685.66
2019-04-03T23:12:59.069Z,99689.58
2019-04-03T23:14:06.965Z,99685.70
2019-04-03T23:15:11.316Z,99684.26
2019-04-03T23:16:16.296Z,99679.25
2019-04-03T23:17:21.509Z,99669.11
2019-04-03T23:18:26.423Z,99654.50
2019-04-03T23:19:32.469Z,99639.39
2019-04-03T23:20:38.331Z,99633.26
2019-04-03T23:21:43.618Z,99635.22
2019-04-03T23:22:48.411Z,99639.38
2019-04-03T23:23:53.335Z,99658.59
2019-04-03T23:24:59.474Z,99667.41
2019-04-03T23:26:05.132Z,99662.16
2019-04-03T23:27:10.103Z,99646.42
2019-04-03T23:28:14.752Z,99642.72
2019-04-03T23:29:19.923Z,99632.17
2019-04-03T23:30:24.574Z,99632.97
2019-04-03T23:31:28.998Z,99636.20
2019-04-03T23:32:33.680Z,99643.56
2019-04-03T23:33:38.820Z,99649.98
2019-04-03T23:34:43.738Z,99648.19
2019-04-03T23:35:49.108Z,99637.25
2019-04-03T23:36:56.211Z,99632.00
2019-04-03T23:38:01.443Z,99629.17
2019-04-03T23:39:09.008Z,99626.86
2019-04-03T23:40:14.443Z,99628.11
2019-04-03T23:41:19.485Z,99627.02
2019-04-03T23:42:24.637Z,99629.89
2019-04-03T23:43:29.396Z,99628.20
2019-04-03T23:44:34.547Z,99631.73
2019-04-03T23:45:39.220Z,99625.85
2019-04-03T23:46:45.620Z,99630.55
2019-04-03T23:47:51.521Z,99631.42
2019-04-03T23:48:56.288Z,99624.98
2019-04-03T23:50:01.770Z,99626.78
2019-04-03T23:51:06.708Z,99623.08
2019-04-03T23:52:11.629Z,99620.17
2019-04-03T23:53:16.503Z,99627.75
2019-04-03T23:54:21.620Z,99625.03
2019-04-03T23:55:26.585Z,99631.33
2019-04-03T23:56:31.835Z,99624.09
2019-04-03T23:57:39.705Z,99619.80
2019-04-03T23:58:43.336Z,99618.22
2019-04-03T23:59:48.864Z,99614.48
